Terminal Aerodrome Forecast
Issued by NWS

Home | Current Version | Previous Version | Text Only | Print | Product List | Glossary On
Versions: 1 2 3 4 5 6 7 8 9 10 11 12 13 14 15
000
FTUS43 KIWX 260537
TAFSBN
TAF
KSBN 260537Z 2606/2706 28007KT P6SM SCT050 BKN150
     FM261400 28012G18KT P6SM FEW050 SCT150
     FM261800 29014G22KT P6SM SCT050 BKN090
     FM270000 31008KT P6SM BKN120=

USA.gov is the U.S. government's official web portal to all federal, state and local government web resources and services.